Time;durP1;ratioP1;P1;durP2;ratioP2;P2;SDS_P1;SDS_P2;PMS_P1;PMS_P2;Temp;Humidity;BMP_temperature;BMP_pressure;BME280_temperature;BME280_humidity;BME280_pressure;Samples;Min_cycle;Max_cycle;Signal;HPM_P1;HPM_P2
2022/08/02 04:04:13;;;;;;;2.40;2.20;;;16.90;99.90;;;;;;5644627;23;20495;-66
2022/08/02 04:06:38;;;;;;;2.57;2.37;;;17.00;99.90;;;;;;5036067;28;20432;-66
2022/08/02 04:09:04;;;;;;;3.17;2.67;;;17.00;99.90;;;;;;5036193;28;20229;-66
2022/08/02 04:11:30;;;;;;;2.10;2.00;;;17.00;99.90;;;;;;5035800;28;20197;-65
2022/08/02 04:14:00;;;;;;;2.40;2.20;;;17.10;99.90;;;;;;5026835;28;20199;-66
2022/08/02 04:16:41;;;;;;;3.10;2.60;;;17.10;99.90;;;;;;5004113;28;20178;-66
2022/08/02 04:19:09;;;;;;;2.93;2.47;;;17.10;99.90;;;;;;5015995;28;20419;-67
2022/08/02 04:21:37;;;;;;;2.90;2.63;;;17.20;99.90;;;;;;5015548;28;20458;-64
2022/08/02 04:24:06;;;;;;;2.53;2.33;;;17.20;99.90;;;;;;4997672;28;20433;-69
2022/08/02 04:26:33;;;;;;;2.77;2.57;;;17.20;99.90;;;;;;5015643;28;20935;-68
2022/08/02 04:29:00;;;;;;;3.23;2.60;;;17.20;99.90;;;;;;5015549;28;20392;-66
2022/08/02 04:31:26;;;;;;;3.20;2.50;;;17.30;99.90;;;;;;5015686;28;20417;-67
2022/08/02 04:33:52;;;;;;;4.13;2.53;;;17.40;99.90;;;;;;5013631;28;20948;-66
2022/08/02 04:36:18;;;;;;;2.70;2.50;;;17.50;99.90;;;;;;5015438;28;20793;-66
2022/08/02 04:38:43;;;;;;;2.70;2.47;;;17.60;99.90;;;;;;5015415;28;20419;-68
2022/08/02 04:41:09;;;;;;;2.90;2.70;;;17.70;99.90;;;;;;5015153;28;20213;-67
2022/08/02 04:43:35;;;;;;;4.10;2.73;;;17.80;99.90;;;;;;5014588;28;20201;-65
2022/08/02 04:46:01;;;;;;;3.53;2.83;;;17.80;99.90;;;;;;5015899;28;20173;-70
2022/08/02 04:48:28;;;;;;;3.60;3.23;;;18.00;99.90;;;;;;4997846;28;20606;-66
2022/08/02 04:50:53;;;;;;;3.63;3.33;;;18.20;99.90;;;;;;5015029;28;20381;-66
2022/08/02 04:53:19;;;;;;;3.03;2.80;;;18.30;99.90;;;;;;5014607;28;20416;-65
2022/08/02 04:55:45;;;;;;;3.43;3.07;;;18.50;99.90;;;;;;5013416;28;20187;-64
2022/08/02 04:58:11;;;;;;;4.10;3.80;;;18.50;99.90;;;;;;5014944;28;20705;-69
2022/08/02 05:00:37;;;;;;;3.20;2.93;;;18.60;99.90;;;;;;5014818;28;20441;-64
2022/08/02 05:03:02;;;;;;;3.20;3.00;;;18.60;99.90;;;;;;5014581;28;20432;-69
2022/08/02 05:05:28;;;;;;;2.77;2.30;;;18.60;99.90;;;;;;5014812;28;20187;-66
2022/08/02 05:07:54;;;;;;;4.37;2.80;;;18.60;99.90;;;;;;5014318;28;20761;-65
2022/08/02 05:10:20;;;;;;;2.50;2.30;;;18.60;99.90;;;;;;5014535;28;20182;-68
2022/08/02 05:12:46;;;;;;;2.10;2.00;;;18.70;99.90;;;;;;5014633;28;20427;-68
2022/08/02 05:15:15;;;;;;;2.63;2.00;;;18.80;99.90;;;;;;5015046;28;20433;-68
2022/08/02 05:17:41;;;;;;;2.77;2.57;;;18.90;99.90;;;;;;5014579;28;20545;-69
2022/08/02 05:20:07;;;;;;;3.73;2.90;;;19.00;99.90;;;;;;5014620;28;20413;-69
2022/08/02 05:22:33;;;;;;;1.90;1.80;;;19.10;99.90;;;;;;5014246;28;20512;-69
2022/08/02 05:24:58;;;;;;;2.30;2.10;;;19.30;99.90;;;;;;5014657;28;20950;-69
2022/08/02 05:27:24;;;;;;;3.20;2.63;;;19.40;99.90;;;;;;5014177;28;20198;-69
2022/08/02 05:29:50;;;;;;;2.27;2.17;;;19.50;99.90;;;;;;5014328;28;20253;-69
2022/08/02 05:32:17;;;;;;;7.20;2.47;;;19.60;99.90;;;;;;5013733;28;20582;-69
2022/08/02 05:34:43;;;;;;;2.53;2.23;;;19.60;99.90;;;;;;5014417;28;20803;-69
2022/08/02 05:37:09;;;;;;;2.40;2.20;;;19.60;99.90;;;;;;5014080;28;20384;-69
2022/08/02 05:39:34;;;;;;;3.13;2.50;;;19.60;99.90;;;;;;5014240;28;20414;-69
2022/08/02 05:42:01;;;;;;;2.20;2.10;;;19.60;99.90;;;;;;5014121;28;20250;-68
2022/08/02 05:44:27;;;;;;;1.97;1.87;;;19.70;99.90;;;;;;5013800;28;20519;-68
2022/08/02 05:46:52;;;;;;;2.43;2.20;;;19.80;99.90;;;;;;5013904;28;20174;-68
2022/08/02 05:49:18;;;;;;;2.47;2.27;;;19.90;99.90;;;;;;5014118;28;20178;-69
2022/08/02 05:52:06;;;;;;;2.70;2.50;;;20.10;99.90;;;;;;5014172;28;20529;-68
2022/08/02 05:54:35;;;;;;;1.93;1.83;;;20.20;99.90;;;;;;5013725;28;20191;-68
2022/08/02 05:57:02;;;;;;;2.23;2.03;;;20.30;99.90;;;;;;4996424;28;21004;-68
2022/08/02 05:59:32;;;;;;;3.63;2.40;;;20.30;99.90;;;;;;4995916;28;20413;-69
2022/08/02 06:02:03;;;;;;;3.07;2.17;;;20.30;99.90;;;;;;5013265;28;20500;-70
2022/08/02 06:05:09;;;;;;;2.80;2.60;;;20.30;99.90;;;;;;4995683;28;20480;-69
2022/08/02 06:07:36;;;;;;;2.40;2.20;;;20.50;99.90;;;;;;5012379;28;20429;-69
2022/08/02 06:10:06;;;;;;;2.70;2.50;;;20.70;99.90;;;;;;5013767;28;20392;-69
2022/08/02 06:12:36;;;;;;;2.77;2.57;;;20.70;99.90;;;;;;5013371;28;20436;-69
2022/08/02 06:15:03;;;;;;;4.03;2.97;;;20.80;99.90;;;;;;5013795;28;20455;-68
2022/08/02 06:17:30;;;;;;;2.83;2.63;;;20.80;99.90;;;;;;5013273;28;20462;-69
2022/08/02 06:20:00;;;;;;;3.23;2.73;;;21.00;99.90;;;;;;5013889;28;20417;-68
2022/08/02 06:22:27;;;;;;;2.63;2.43;;;21.10;99.90;;;;;;5013340;28;21025;-69
2022/08/02 06:24:55;;;;;;;2.43;2.30;;;21.30;99.90;;;;;;5013687;28;20429;-68
2022/08/02 06:27:25;;;;;;;4.37;2.63;;;21.50;99.90;;;;;;5013618;28;20410;-69
2022/08/02 06:29:52;;;;;;;1.87;1.77;;;21.60;99.90;;;;;;5013541;28;20433;-68
2022/08/02 06:32:18;;;;;;;2.33;2.20;;;21.80;99.90;;;;;;5013001;28;20438;-70
2022/08/02 06:34:45;;;;;;;4.63;3.43;;;21.90;99.90;;;;;;5013429;28;21022;-69
2022/08/02 06:37:25;;;;;;;3.40;3.10;;;21.90;99.90;;;;;;5013690;28;20490;-70
2022/08/02 06:40:00;;;;;;;4.13;3.20;;;21.90;99.90;;;;;;5013376;28;20467;-68
2022/08/02 06:42:42;;;;;;;3.80;3.00;;;21.90;99.90;;;;;;5013229;28;20462;-67
2022/08/02 06:45:08;;;;;;;3.10;2.80;;;22.00;99.90;;;;;;5013277;28;20427;-69
2022/08/02 06:47:34;;;;;;;3.20;2.90;;;22.00;99.90;;;;;;5013606;28;20425;-67
2022/08/02 06:49:59;;;;;;;3.50;3.00;;;22.10;99.90;;;;;;5013281;28;20769;-68
2022/08/02 06:52:27;;;;;;;3.33;2.60;;;22.20;99.90;;;;;;5012943;28;20548;-67
2022/08/02 06:54:55;;;;;;;3.00;2.80;;;22.40;99.90;;;;;;5013246;28;20213;-69
2022/08/02 06:57:20;;;;;;;3.77;3.47;;;22.60;99.90;;;;;;5013475;28;20911;-67
2022/08/02 06:59:46;;;;;;;2.27;2.10;;;22.80;99.90;;;;;;5013213;28;20383;-68
2022/08/02 07:02:12;;;;;;;2.50;2.30;;;23.00;99.90;;;;;;5012954;28;20565;-68
2022/08/02 07:04:37;;;;;;;2.87;2.67;;;23.00;99.90;;;;;;5013118;28;20274;-67
2022/08/02 07:07:03;;;;;;;3.07;2.87;;;23.10;99.90;;;;;;5013633;28;20257;-67
2022/08/02 07:09:28;;;;;;;4.50;2.83;;;23.20;99.90;;;;;;5013318;28;20182;-67
2022/08/02 07:11:54;;;;;;;4.80;3.10;;;23.20;99.90;;;;;;5013295;28;20629;-67
2022/08/02 07:14:20;;;;;;;3.77;3.10;;;23.10;99.90;;;;;;5012690;28;20191;-66
2022/08/02 07:16:46;;;;;;;3.40;3.10;;;23.10;99.90;;;;;;4995419;28;20182;-68
2022/08/02 07:19:11;;;;;;;3.20;2.80;;;23.30;99.90;;;;;;5015161;28;20266;-67
2022/08/02 07:21:38;;;;;;;3.23;3.03;;;23.40;99.90;;;;;;5016908;28;20289;-66
2022/08/02 07:24:04;;;;;;;2.80;2.60;;;23.50;99.90;;;;;;4999191;28;20464;-68
2022/08/02 07:26:30;;;;;;;2.57;2.37;;;23.40;99.90;;;;;;5016668;28;20922;-69
2022/08/02 07:28:57;;;;;;;3.57;3.13;;;23.40;99.90;;;;;;5016813;28;20236;-69
2022/08/02 07:31:23;;;;;;;3.00;2.70;;;23.50;99.90;;;;;;5016335;28;20289;-69
2022/08/02 07:33:48;;;;;;;2.93;2.73;;;23.50;99.90;;;;;;4998523;28;20511;-68
2022/08/02 07:36:14;;;;;;;2.87;2.67;;;23.60;99.90;;;;;;5016515;28;20645;-68
2022/08/02 07:38:40;;;;;;;3.60;2.70;;;;;;;;;;5016541;28;20183;-69
2022/08/02 07:41:05;;;;;;;7.13;2.87;;;23.80;99.90;;;;;;5016394;28;20607;-69
2022/08/02 07:43:31;;;;;;;3.33;3.03;;;24.20;99.90;;;;;;4998310;28;20458;-69
2022/08/02 07:45:57;;;;;;;3.30;2.17;;;24.40;99.90;;;;;;5016184;28;20246;-69
2022/08/02 07:48:22;;;;;;;2.77;2.57;;;24.70;99.90;;;;;;5016508;28;20175;-69
2022/08/02 07:50:48;;;;;;;3.17;2.43;;;25.30;99.90;;;;;;5016235;28;20185;-69
2022/08/02 07:53:13;;;;;;;2.60;2.40;;;25.90;99.90;;;;;;5015737;28;20644;-70
2022/08/02 07:55:39;;;;;;;3.77;2.47;;;26.70;99.90;;;;;;5016421;28;20525;-69
2022/08/02 07:58:05;;;;;;;5.17;3.73;;;27.60;99.90;;;;;;5016321;28;20174;-69
2022/08/02 08:00:31;;;;;;;5.10;2.97;;;28.90;97.80;;;;;;5015802;28;20195;-69
2022/08/02 08:02:58;;;;;;;3.47;3.17;;;30.00;95.20;;;;;;5015203;28;20759;-70
2022/08/02 08:05:23;;;;;;;3.33;3.07;;;30.80;93.40;;;;;;5015828;28;20222;-69
2022/08/02 08:07:49;;;;;;;3.20;2.80;;;31.60;91.80;;;;;;5016065;28;20417;-67
2022/08/02 08:10:14;;;;;;;3.27;2.97;;;32.40;91.30;;;;;;5016156;28;20183;-67
2022/08/02 08:12:40;;;;;;;3.40;3.20;;;33.20;90.10;;;;;;5015419;28;20532;-67
2022/08/02 08:15:06;;;;;;;3.30;3.10;;;33.90;89.90;;;;;;5015241;28;20673;-67
2022/08/02 08:17:32;;;;;;;3.33;2.87;;;34.40;86.30;;;;;;5015174;28;20235;-67
2022/08/02 08:19:57;;;;;;;3.20;3.00;;;34.80;84.00;;;;;;5015474;28;20896;-67
2022/08/02 08:22:23;;;;;;;3.20;3.00;;;35.30;79.90;;;;;;5015553;28;20205;-67
2022/08/02 08:24:49;;;;;;;3.10;2.90;;;35.70;77.30;;;;;;5015635;28;20737;-66
2022/08/02 08:27:18;;;;;;;2.90;2.70;;;35.90;75.20;;;;;;5015424;28;20183;-67
2022/08/02 08:29:44;;;;;;;3.40;3.20;;;36.20;73.20;;;;;;5013972;28;20198;-66
2022/08/02 08:32:12;;;;;;;3.00;2.80;;;36.80;74.00;;;;;;5014756;28;20838;-67
2022/08/02 08:34:38;;;;;;;2.90;2.70;;;37.30;70.30;;;;;;5015494;28;20939;-66
2022/08/02 08:37:03;;;;;;;3.13;2.83;;;37.10;67.10;;;;;;5015471;28;20422;-66
2022/08/02 08:39:29;;;;;;;3.40;3.10;;;37.00;68.30;;;;;;5015683;28;20183;-66
2022/08/02 08:41:55;;;;;;;2.97;2.77;;;36.50;68.50;;;;;;5015059;28;20209;-66
2022/08/02 08:44:21;;;;;;;3.13;2.93;;;36.50;71.40;;;;;;5014783;28;20438;-67
2022/08/02 08:46:48;;;;;;;3.63;3.43;;;37.10;70.20;;;;;;5014878;28;20237;-66
2022/08/02 08:49:21;;;;;;;3.10;2.90;;;37.80;65.70;;;;;;5014933;28;20179;-66
2022/08/02 08:51:49;;;;;;;3.30;3.10;;;37.80;63.70;;;;;;5015092;28;20520;-66
2022/08/02 08:54:16;;;;;;;3.37;3.17;;;37.80;62.90;;;;;;5014459;28;20449;-68
2022/08/02 08:56:42;;;;;;;3.83;3.53;;;37.70;65.00;;;;;;5014794;28;20436;-68
2022/08/02 08:59:08;;;;;;;3.67;3.47;;;37.90;63.80;;;;;;5015079;28;20414;-67
2022/08/02 09:01:34;;;;;;;4.37;3.30;;;37.80;65.00;;;;;;5014862;28;20414;-67
2022/08/02 09:03:59;;;;;;;2.93;2.80;;;37.80;61.40;;;;;;5014458;28;20187;-68
2022/08/02 09:06:25;;;;;;;3.40;3.20;;;38.00;63.70;;;;;;5014807;28;20179;-67
2022/08/02 09:08:51;;;;;;;3.67;3.47;;;38.30;62.80;;;;;;5014939;28;20637;-67
2022/08/02 09:11:23;;;;;;;3.60;3.40;;;38.50;60.10;;;;;;5014430;28;20194;-68
2022/08/02 09:13:59;;;;;;;3.00;2.80;;;38.50;59.50;;;;;;5014278;28;20434;-67
2022/08/02 09:16:34;;;;;;;4.73;4.43;;;38.40;57.40;;;;;;5015270;28;20911;-67
2022/08/02 09:19:21;;;;;;;3.63;3.43;;;38.50;58.50;;;;;;5014595;28;20405;-67
2022/08/02 09:21:59;;;;;;;3.80;3.47;;;38.60;61.10;;;;;;5014285;28;20421;-67
2022/08/02 09:24:24;;;;;;;3.80;3.60;;;38.80;58.40;;;;;;5014031;28;20445;-67
2022/08/02 09:26:50;;;;;;;4.20;3.40;;;38.50;57.70;;;;;;5014428;28;20413;-67
2022/08/02 09:29:20;;;;;;;4.57;3.67;;;38.40;57.20;;;;;;5014257;28;20175;-67
2022/08/02 09:31:46;;;;;;;4.00;3.80;;;38.20;58.00;;;;;;5014238;28;20612;-67
2022/08/02 09:34:12;;;;;;;3.63;3.43;;;37.90;59.20;;;;;;5014072;28;20441;-67
2022/08/02 09:36:43;;;;;;;3.60;3.40;;;38.10;59.50;;;;;;4996638;28;20445;-67
2022/08/02 09:39:13;;;;;;;3.73;3.47;;;37.90;58.90;;;;;;5014352;28;20536;-67
2022/08/02 09:41:43;;;;;;;3.70;3.50;;;38.10;57.80;;;;;;5014370;28;20513;-67
2022/08/02 09:44:13;;;;;;;3.70;3.50;;;38.60;56.80;;;;;;5013953;28;20429;-68
2022/08/02 09:46:44;;;;;;;3.30;3.20;;;39.10;55.90;;;;;;5014154;28;20428;-67
2022/08/02 09:49:18;;;;;;;4.53;4.23;;;39.40;57.50;;;;;;5014101;28;20418;-67
2022/08/02 09:51:53;;;;;;;3.70;3.50;;;39.20;56.60;;;;;;5014389;28;20449;-67
2022/08/02 09:54:22;;;;;;;4.20;3.90;;;39.30;55.50;;;;;;5013700;28;20968;-68
2022/08/02 09:56:50;;;;;;;3.73;3.53;;;39.30;55.50;;;;;;5014241;28;20772;-65
2022/08/02 09:59:19;;;;;;;4.30;4.10;;;39.30;55.70;;;;;;5014005;28;20456;-68
2022/08/02 10:01:47;;;;;;;4.03;3.83;;;39.70;55.80;;;;;;5013811;28;20479;-65
2022/08/02 10:04:13;;;;;;;3.80;3.60;;;40.10;55.80;;;;;;5013398;28;20919;-65
2022/08/02 10:06:41;;;;;;;4.30;4.10;;;40.40;54.40;;;;;;5013758;28;20438;-66
2022/08/02 10:09:08;;;;;;;3.40;3.30;;;40.40;53.20;;;;;;5013979;28;20413;-66
2022/08/02 10:11:34;;;;;;;3.87;3.67;;;40.40;53.20;;;;;;5013969;28;20489;-67
2022/08/02 10:14:05;;;;;;;4.10;3.90;;;39.90;52.40;;;;;;5013344;28;20464;-68
2022/08/02 10:16:33;;;;;;;4.00;3.80;;;39.00;54.00;;;;;;5013238;28;20418;-65
2022/08/02 10:19:01;;;;;;;4.73;4.33;;;37.70;55.40;;;;;;5013669;28;20409;-67
2022/08/02 10:21:29;;;;;;;4.00;3.70;;;36.40;57.00;;;;;;5013746;28;20508;-68
2022/08/02 10:24:07;;;;;;;3.90;3.60;;;35.40;58.50;;;;;;5012911;28;20773;-71
2022/08/02 10:26:35;;;;;;;3.83;3.57;;;35.40;59.70;;;;;;4996205;28;20406;-67
2022/08/02 10:29:01;;;;;;;3.23;3.00;;;35.80;59.30;;;;;;5013407;28;20422;-70
2022/08/02 10:31:33;;;;;;;3.43;3.23;;;35.70;57.60;;;;;;5013421;28;20464;-68
2022/08/02 10:34:02;;;;;;;3.73;3.43;;;35.70;57.80;;;;;;5013310;28;20441;-69
2022/08/02 10:36:31;;;;;;;3.70;3.50;;;36.20;57.50;;;;;;5013665;28;20787;-68
2022/08/02 10:38:58;;;;;;;3.20;3.00;;;36.60;56.30;;;;;;5013604;28;20398;-68
2022/08/02 10:41:49;;;;;;;3.60;3.30;;;36.40;56.30;;;;;;5013687;28;20797;-66
2022/08/02 10:44:30;;;;;;;3.20;3.00;;;35.60;56.90;;;;;;5013107;28;20426;-67
2022/08/02 10:47:15;;;;;;;6.10;3.47;;;34.10;58.90;;;;;;5013412;28;20417;-66
2022/08/02 10:49:52;;;;;;;3.60;3.30;;;32.90;60.90;;;;;;5013609;28;20413;-70
2022/08/02 10:52:28;;;;;;;3.70;3.50;;;32.10;63.20;;;;;;5012905;28;20535;-67
2022/08/02 10:55:23;;;;;;;3.47;3.27;;;32.30;65.90;;;;;;5016838;28;20816;-67
2022/08/02 10:58:15;;;;;;;3.20;3.00;;;32.90;64.00;;;;;;5015088;28;20417;-68
2022/08/02 11:00:40;;;;;;;4.00;3.70;;;33.70;62.80;;;;;;5016995;28;20418;-67
2022/08/02 11:03:38;;;;;;;3.73;3.43;;;34.20;62.00;;;;;;4999532;28;20417;-68
2022/08/02 11:06:05;;;;;;;3.73;3.43;;;35.10;58.90;;;;;;5017070;28;20209;-68
2022/08/02 11:08:31;;;;;;;3.17;2.87;;;35.50;58.20;;;;;;5017238;28;20505;-68
2022/08/02 11:11:23;;;;;;;3.67;3.37;;;35.60;57.10;;;;;;5017275;28;20446;-68
2022/08/02 11:14:02;;;;;;;3.40;3.20;;;35.60;58.10;;;;;;5012948;28;20800;-68
2022/08/02 11:16:56;;;;;;;3.20;3.00;;;35.70;57.60;;;;;;5016514;28;20457;-69
2022/08/02 11:19:22;;;;;;;3.33;3.10;;;35.70;58.00;;;;;;5017129;28;20493;-67
2022/08/02 11:22:01;;;;;;;5.90;3.60;;;35.30;58.60;;;;;;4999187;28;20476;-67
2022/08/02 11:24:30;;;;;;;3.07;2.87;;;34.70;58.90;;;;;;5016490;28;20433;-68
2022/08/02 11:26:56;;;;;;;3.27;3.07;;;34.00;58.20;;;;;;5016997;28;20500;-66
2022/08/02 11:29:38;;;;;;;3.90;2.87;;;33.30;59.50;;;;;;5016833;28;20413;-67
2022/08/02 11:32:05;;;;;;;3.30;3.10;;;32.60;61.10;;;;;;4997076;28;20461;-67
2022/08/02 11:34:34;;;;;;;3.33;2.90;;;32.00;61.70;;;;;;4996748;28;20423;-67
2022/08/02 11:37:00;;;;;;;3.47;3.17;;;31.50;63.70;;;;;;4997189;28;20481;-68
2022/08/02 11:39:26;;;;;;;3.17;2.87;;;31.20;65.10;;;;;;4997126;28;20484;-67
2022/08/02 11:41:54;;;;;;;3.40;3.20;;;30.80;66.20;;;;;;4996885;28;20906;-67
2022/08/02 11:44:21;;;;;;;3.67;3.47;;;30.70;67.00;;;;;;4997147;28;20192;-67
2022/08/02 11:47:02;;;;;;;3.00;2.80;;;30.70;66.30;;;;;;5016110;28;20406;-67
2022/08/02 11:49:28;;;;;;;3.57;3.30;;;30.70;64.80;;;;;;5016296;28;20775;-67
2022/08/02 11:52:06;;;;;;;3.27;2.97;;;30.60;65.30;;;;;;5016320;28;20511;-67
2022/08/02 11:54:41;;;;;;;3.17;2.87;;;30.50;64.90;;;;;;5015906;28;20416;-67
2022/08/02 11:57:18;;;;;;;2.77;2.57;;;30.30;64.70;;;;;;5016236;28;20388;-67
2022/08/02 11:59:45;;;;;;;2.83;2.57;;;30.30;65.50;;;;;;5015947;28;20406;-67
2022/08/02 12:02:11;;;;;;;3.10;2.90;;;30.20;65.80;;;;;;5016011;28;20391;-66
2022/08/02 12:04:38;;;;;;;3.90;3.60;;;30.30;66.40;;;;;;5013919;28;20432;-67
2022/08/02 12:07:05;;;;;;;2.60;2.40;;;30.20;65.50;;;;;;5011688;28;20443;-64
2022/08/02 12:09:33;;;;;;;3.50;3.00;;;30.20;65.30;;;;;;5015875;28;20377;-64
2022/08/02 12:11:59;;;;;;;2.90;2.70;;;30.20;65.00;;;;;;5016033;28;20830;-63
2022/08/02 12:14:27;;;;;;;5.13;2.60;;;30.10;64.00;;;;;;5015369;28;20430;-64
2022/08/02 12:19:39;;;;;;;6.73;3.07;;;29.70;64.20;;;;;;5015556;28;20407;-65
2022/08/02 12:22:24;;;;;;;2.43;2.23;;;29.40;65.10;;;;;;5014773;28;20436;-63
2022/08/02 12:24:56;;;;;;;3.80;3.50;;;29.20;65.60;;;;;;5015047;28;20457;-64
2022/08/02 12:27:40;;;;;;;2.67;2.47;;;29.00;68.00;;;;;;5015073;28;20388;-64
2022/08/02 12:30:07;;;;;;;2.73;2.53;;;28.90;67.30;;;;;;5015000;28;20463;-64
2022/08/02 12:32:33;;;;;;;2.87;2.67;;;28.70;67.00;;;;;;5015055;28;20436;-63
2022/08/02 12:35:11;;;;;;;2.63;2.43;;;28.60;66.10;;;;;;5015521;28;20472;-65
2022/08/02 12:37:41;;;;;;;2.67;2.47;;;28.50;67.50;;;;;;4996035;28;20476;-64
2022/08/02 12:40:30;;;;;;;3.40;3.20;;;28.40;68.00;;;;;;4996050;28;20453;-64
2022/08/02 12:42:57;;;;;;;3.40;2.30;;;28.50;68.70;;;;;;4995590;28;20419;-64
2022/08/02 12:45:24;;;;;;;3.03;2.83;;;28.60;68.10;;;;;;4995748;28;20487;-64
2022/08/02 12:47:58;;;;;;;2.83;2.63;;;28.70;68.50;;;;;;4978247;28;20424;-64
2022/08/02 12:50:25;;;;;;;3.17;2.33;;;28.80;66.70;;;;;;5000856;28;20849;-65
2022/08/02 12:53:07;;;;;;;3.17;2.87;;;28.90;67.40;;;;;;5014926;28;20428;-65
2022/08/02 12:55:34;;;;;;;2.70;2.47;;;29.00;66.00;;;;;;5015352;28;20929;-64
2022/08/02 12:58:04;;;;;;;2.97;2.77;;;29.10;66.80;;;;;;5015218;28;20781;-64
2022/08/02 13:00:33;;;;;;;2.93;2.73;;;29.20;67.60;;;;;;5015118;28;20420;-64
2022/08/02 13:02:59;;;;;;;3.03;2.83;;;29.40;65.70;;;;;;5014633;28;20376;-65
2022/08/02 13:05:30;;;;;;;3.10;2.60;;;29.40;66.50;;;;;;5014481;28;20462;-64
2022/08/02 13:07:58;;;;;;;2.87;2.77;;;29.40;66.00;;;;;;5015175;28;20745;-64
2022/08/02 13:10:23;;;;;;;2.67;2.47;;;29.30;65.30;;;;;;5014911;28;20959;-64
2022/08/02 13:12:50;;;;;;;2.93;2.73;;;29.20;65.40;;;;;;5014446;28;20604;-64
2022/08/02 13:15:15;;;;;;;2.70;2.50;;;29.00;65.50;;;;;;5014200;28;20198;-64
2022/08/02 13:17:41;;;;;;;2.47;2.27;;;29.00;66.20;;;;;;5014173;28;20551;-64
2022/08/02 13:20:08;;;;;;;2.60;2.40;;;29.00;66.70;;;;;;5013835;28;20174;-64
2022/08/02 13:22:34;;;;;;;2.67;2.47;;;29.00;67.00;;;;;;5014253;28;20174;-64
2022/08/02 13:25:00;;;;;;;3.03;2.83;;;29.10;65.80;;;;;;5014168;28;20400;-64
2022/08/02 13:27:26;;;;;;;3.00;2.80;;;29.10;64.10;;;;;;5014166;28;20872;-64
2022/08/02 13:29:54;;;;;;;2.33;2.20;;;29.20;63.80;;;;;;5015282;28;20175;-64
2022/08/02 13:32:20;;;;;;;2.67;2.47;;;29.20;64.70;;;;;;5012850;28;20823;-65
2022/08/02 13:34:46;;;;;;;3.00;2.70;;;29.30;65.60;;;;;;5012063;28;20438;-65
2022/08/02 13:37:12;;;;;;;2.07;1.97;;;29.20;63.30;;;;;;5012023;28;20886;-65
2022/08/02 13:39:38;;;;;;;2.97;2.77;;;29.10;64.20;;;;;;5012270;28;20641;-65
2022/08/02 13:42:04;;;;;;;2.70;2.50;;;29.20;63.70;;;;;;5012258;28;20414;-65
2022/08/02 13:44:29;;;;;;;2.60;2.40;;;29.20;62.80;;;;;;5011777;28;20246;-64
2022/08/02 13:46:55;;;;;;;2.53;2.33;;;29.20;63.20;;;;;;5012695;28;20190;-64
2022/08/02 13:49:21;;;;;;;2.80;2.53;;;29.30;64.10;;;;;;5013831;28;20190;-64
2022/08/02 13:51:47;;;;;;;3.87;3.57;;;29.50;64.60;;;;;;5014132;28;20207;-64
2022/08/02 13:54:13;;;;;;;2.53;2.33;;;29.70;64.20;;;;;;5013697;28;20206;-64
2022/08/02 13:56:39;;;;;;;2.63;2.50;;;29.80;62.70;;;;;;5014290;28;20373;-64
2022/08/02 13:59:04;;;;;;;2.50;2.30;;;29.90;61.20;;;;;;5014275;28;20406;-64
2022/08/02 14:01:32;;;;;;;2.70;2.50;;;29.80;61.20;;;;;;5014375;28;20183;-64
2022/08/02 14:03:58;;;;;;;2.43;2.23;;;29.70;62.30;;;;;;5013179;28;20203;-65
2022/08/02 14:06:24;;;;;;;3.27;2.57;;;29.60;63.30;;;;;;5013934;28;20484;-64
2022/08/02 14:08:50;;;;;;;3.83;2.20;;;29.70;64.00;;;;;;5013965;28;20388;-65
2022/08/02 14:11:15;;;;;;;2.47;2.27;;;29.70;62.90;;;;;;5013925;28;20439;-64
2022/08/02 14:13:41;;;;;;;2.10;2.00;;;29.70;62.00;;;;;;5013354;28;20191;-64
2022/08/02 14:16:07;;;;;;;2.90;2.70;;;29.80;61.70;;;;;;5014285;28;20621;-64
2022/08/02 14:18:32;;;;;;;2.40;2.20;;;29.80;61.00;;;;;;5013697;28;20183;-64
2022/08/02 14:20:58;;;;;;;2.47;2.30;;;29.80;61.10;;;;;;5014383;28;20179;-63
2022/08/02 14:23:24;;;;;;;2.63;2.47;;;29.80;60.60;;;;;;5013401;28;20217;-63
2022/08/02 14:25:49;;;;;;;2.10;2.00;;;29.90;60.80;;;;;;5013912;28;20175;-64
2022/08/02 14:28:15;;;;;;;2.93;2.63;;;29.90;59.70;;;;;;5013755;28;20198;-64
2022/08/02 14:30:41;;;;;;;2.13;2.00;;;29.90;60.80;;;;;;5013579;28;20179;-64
2022/08/02 14:33:07;;;;;;;2.30;2.10;;;29.90;60.10;;;;;;5012790;28;20828;-63
2022/08/02 14:35:33;;;;;;;2.83;2.30;;;30.00;59.60;;;;;;5013652;28;20202;-64
2022/08/02 14:37:58;;;;;;;2.30;2.20;;;29.90;59.60;;;;;;5013342;28;20174;-64
2022/08/02 14:40:25;;;;;;;2.40;2.20;;;29.90;59.60;;;;;;5013695;28;20174;-63
2022/08/02 14:42:51;;;;;;;2.70;2.23;;;29.80;60.00;;;;;;4995596;28;20257;-64
2022/08/02 14:45:20;;;;;;;2.00;1.90;;;29.80;59.40;;;;;;5013414;28;20434;-63
2022/08/02 14:47:49;;;;;;;2.23;2.13;;;29.80;59.50;;;;;;4995529;28;20942;-65
2022/08/02 14:50:16;;;;;;;1.73;1.63;;;29.90;59.80;;;;;;5013273;28;20392;-62
2022/08/02 14:52:45;;;;;;;4.30;2.43;;;29.90;59.20;;;;;;5012850;28;20424;-65
2022/08/02 14:55:11;;;;;;;4.27;2.50;;;29.80;59.30;;;;;;4995597;28;20426;-63
2022/08/02 14:57:36;;;;;;;2.43;2.23;;;29.70;60.00;;;;;;5013347;28;20380;-65
2022/08/02 15:00:03;;;;;;;2.10;2.00;;;29.70;59.90;;;;;;5013437;28;20182;-64
2022/08/02 15:02:29;;;;;;;2.17;2.07;;;29.70;59.60;;;;;;5012443;28;20233;-65
2022/08/02 15:04:55;;;;;;;2.50;2.30;;;29.60;59.50;;;;;;5013018;28;20528;-64
2022/08/02 15:07:20;;;;;;;2.00;1.90;;;29.60;59.30;;;;;;5013311;28;20175;-64
2022/08/02 15:09:46;;;;;;;2.57;2.37;;;29.60;59.80;;;;;;5013168;28;20236;-65
2022/08/02 15:12:12;;;;;;;2.20;2.10;;;29.50;60.00;;;;;;5012782;28;20553;-67
2022/08/02 15:14:39;;;;;;;2.00;1.90;;;29.50;59.70;;;;;;5013015;28;20196;-62
2022/08/02 15:17:05;;;;;;;2.17;2.07;;;29.50;58.90;;;;;;5013032;28;20177;-64
2022/08/02 15:19:31;;;;;;;2.23;2.13;;;29.50;59.20;;;;;;5012745;28;20420;-64
2022/08/02 15:21:57;;;;;;;2.07;1.97;;;29.50;59.20;;;;;;5012976;28;20483;-64
2022/08/02 15:24:23;;;;;;;2.20;2.10;;;29.50;59.30;;;;;;5012462;28;20526;-63
2022/08/02 15:26:49;;;;;;;2.03;1.93;;;29.50;60.60;;;;;;5013198;28;20174;-66
2022/08/02 15:29:16;;;;;;;2.03;1.93;;;29.50;59.50;;;;;;5013139;28;20175;-64
2022/08/02 15:31:42;;;;;;;2.10;2.00;;;29.50;59.20;;;;;;5013150;28;20783;-64
2022/08/02 15:34:08;;;;;;;2.83;2.63;;;29.50;59.00;;;;;;5012251;28;20423;-63
2022/08/02 15:36:34;;;;;;;1.80;1.70;;;29.50;59.00;;;;;;5013048;28;20208;-63
2022/08/02 15:38:59;;;;;;;1.90;1.80;;;29.30;58.10;;;;;;5013358;28;20418;-64
2022/08/02 15:41:25;;;;;;;4.23;2.20;;;29.30;58.30;;;;;;5016640;28;20171;-63
2022/08/02 15:43:51;;;;;;;2.80;2.60;;;29.30;58.50;;;;;;5016094;28;20191;-63
2022/08/02 15:46:16;;;;;;;2.23;1.80;;;29.30;59.20;;;;;;5016332;28;20178;-63
2022/08/02 15:48:42;;;;;;;2.43;2.33;;;29.40;59.50;;;;;;5016343;28;20189;-64
2022/08/02 15:51:08;;;;;;;3.13;2.93;;;29.40;59.60;;;;;;5016383;28;20198;-64
2022/08/02 15:53:33;;;;;;;2.00;1.90;;;29.40;59.00;;;;;;5015835;28;20661;-64
2022/08/02 15:55:59;;;;;;;2.50;2.40;;;29.40;58.80;;;;;;5016359;28;20170;-64
2022/08/02 15:58:25;;;;;;;2.37;2.23;;;29.40;58.40;;;;;;5016122;28;20325;-64
2022/08/02 16:00:51;;;;;;;2.10;1.70;;;29.40;58.20;;;;;;5016062;28;20177;-63
2022/08/02 16:03:17;;;;;;;2.17;2.07;;;29.30;58.20;;;;;;5015246;28;20422;-64
2022/08/02 16:05:43;;;;;;;2.33;2.13;;;29.30;57.90;;;;;;5016195;28;20764;-64
2022/08/02 16:08:08;;;;;;;2.00;1.90;;;29.30;57.80;;;;;;5016156;28;20420;-63
2022/08/02 16:10:34;;;;;;;2.43;2.30;;;29.20;58.30;;;;;;5015872;28;20181;-64
2022/08/02 16:15:44;;;;;;;1.90;1.80;;;29.10;58.60;;;;;;5015718;28;20394;-63
2022/08/02 16:18:10;;;;;;;2.60;2.40;;;29.10;58.70;;;;;;5015890;28;20387;-63
2022/08/02 16:20:35;;;;;;;2.10;2.00;;;29.10;58.80;;;;;;5015781;28;20241;-64
2022/08/02 16:23:01;;;;;;;2.40;2.20;;;29.10;59.40;;;;;;5015264;28;20540;-64
2022/08/02 16:25:27;;;;;;;2.10;2.00;;;29.10;59.10;;;;;;5015374;28;20252;-63
2022/08/02 16:27:52;;;;;;;2.43;2.27;;;29.10;59.00;;;;;;5015125;28;20261;-64
2022/08/02 16:30:18;;;;;;;2.00;1.87;;;29.10;59.30;;;;;;5015166;28;20176;-64
2022/08/02 16:32:44;;;;;;;2.30;2.20;;;29.10;59.70;;;;;;5014689;28;20231;-63
2022/08/02 16:35:09;;;;;;;2.70;2.50;;;29.10;59.70;;;;;;5014978;28;20197;-64
2022/08/02 16:37:35;;;;;;;2.50;2.30;;;29.10;59.80;;;;;;5014869;28;20177;-63
2022/08/02 16:40:00;;;;;;;2.27;2.10;;;29.00;59.80;;;;;;5015021;28;20561;-64
2022/08/02 16:42:26;;;;;;;3.03;2.10;;;29.00;59.90;;;;;;5014303;28;20190;-63
2022/08/02 16:44:52;;;;;;;2.00;1.90;;;29.00;58.80;;;;;;5014549;28;20737;-63
2022/08/02 16:47:18;;;;;;;2.10;2.00;;;29.00;58.70;;;;;;5014875;28;20677;-63
2022/08/02 16:49:43;;;;;;;2.77;2.57;;;29.00;58.70;;;;;;5014931;28;20392;-62
2022/08/02 16:52:09;;;;;;;2.10;2.00;;;28.90;59.30;;;;;;5012396;28;20196;-63
2022/08/02 16:54:36;;;;;;;2.27;2.10;;;28.90;60.00;;;;;;5002867;28;20255;-64
2022/08/02 16:57:03;;;;;;;2.37;2.17;;;28.80;59.40;;;;;;5003532;28;20176;-66
2022/08/02 16:59:31;;;;;;;2.17;1.97;;;28.80;59.30;;;;;;5004714;28;20416;-64
2022/08/02 17:01:56;;;;;;;2.23;2.00;;;28.70;59.50;;;;;;5003012;28;20815;-63